Portada
METAR-TAF:

METAR-TAF

Aeroports :

Malé, Maldives

latitud: 04-12N, longitud: 073-32E, altitud: 2 m

Observació

L'informe es va fer fa 1 hora i 1 minuts, a les 10:00 UTC
Vent 5 kt del Est/Sud-Est
Temperatura 30°C
Humitat 70%
Pressió 1008 hPa
Visibilitat 10 km o més
Escasses núvols a una alçada de 1800 ft, Cumulus congestus.
Cel ennuvolat a una alçada de 27000 ft

METAR: VRMM 211000Z 12005KT 9999 FEW018TCU BKN270 30/24 Q1008 NOSIG

Hora: 16:01 (11:01 UTC)

Pronòstic

L'informe es va fer fa 6 hores i 1 minuts, a les 05:00 UTC
Pronòstic vàlid del 21 a les 06 UTC al 22 a les 12 UTC
Vent 7 kt del Sud-Est
Visibilitat 10 km o més
Escasses núvols a una alçada de 1800 ft
Temporalment
l' 21 a les 06 UTC al 21 a les 12 UTC
Escasses núvols a una alçada de 1900 ft, Cumulonimbus.

TAF: VRMM 210500Z 2106/2212 14007KT 9999 FEW018 TEMPO 2106/2112 FEW019CB

Observacions i pronòstics meteorològics de més de 4000 aeroports (METAR i TAF).

Les estacions disponibles són els punts grocs i vermells al mapa.

Posi el ratolí al punt desitjat per veure el nom de l'estació.

Feu clic per veure les observacions i els pronòstics meteorològics.

Per canviar el mapa: feu clic els botons verds amb una creu de color negre per apropar; al botó verd amb un guió per allunyar la imatge; o en les fletxes verdes per a mapes adjacents.


METAR-TAF: